Time;durP1;ratioP1;P1;durP2;ratioP2;P2;SDS_P1;SDS_P2;PMS_P1;PMS_P2;Temp;Humidity;BMP_temperature;BMP_pressure;BME280_temperature;BME280_humidity;BME280_pressure;Samples;Min_cycle;Max_cycle;Signal;HPM_P1;HPM_P2
2023/01/30 00:01:51;;;;;;;29.67;18.73;;;-0.10;99.90;;;;;;5015730;28;20060;-53
2023/01/30 00:04:37;;;;;;;31.40;19.08;;;0.00;99.90;;;;;;5019652;28;20030;-52
2023/01/30 00:07:23;;;;;;;30.48;19.25;;;0.00;99.90;;;;;;5009839;28;20041;-55
2023/01/30 00:10:10;;;;;;;33.28;19.75;;;0.00;99.90;;;;;;5010432;28;20080;-53
2023/01/30 00:12:55;;;;;;;28.77;18.63;;;0.00;99.90;;;;;;5008292;28;20030;-53
2023/01/30 00:15:42;;;;;;;31.05;19.40;;;0.00;99.90;;;;;;5024831;28;20030;-55
2023/01/30 00:18:28;;;;;;;28.02;18.50;;;0.00;99.90;;;;;;5024250;28;20032;-56
2023/01/30 00:21:14;;;;;;;28.02;17.70;;;-0.10;99.90;;;;;;5017971;28;20635;-54
2023/01/30 00:24:00;;;;;;;32.33;19.00;;;-0.10;99.90;;;;;;5011009;28;20037;-52
2023/01/30 00:26:46;;;;;;;28.80;17.77;;;0.00;99.90;;;;;;5016907;28;20091;-54
2023/01/30 00:29:32;;;;;;;26.23;16.98;;;0.00;99.90;;;;;;5024535;28;20021;-57
2023/01/30 00:32:18;;;;;;;26.13;16.58;;;0.00;99.90;;;;;;5010752;28;20060;-54
2023/01/30 00:35:05;;;;;;;27.80;17.48;;;0.00;99.90;;;;;;5016767;28;20026;-52
2023/01/30 00:37:51;;;;;;;26.70;16.75;;;0.20;99.90;;;;;;5021723;28;20545;-52
2023/01/30 00:40:38;;;;;;;27.77;17.90;;;0.20;99.90;;;;;;5031946;28;20064;-55
2023/01/30 00:49:37;;;;;;;27.10;17.10;;;0.20;99.90;;;;;;5022739;28;20510;-57
2023/01/30 00:52:23;;;;;;;24.63;16.63;;;0.20;99.90;;;;;;5029530;28;20055;-55
2023/01/30 00:55:09;;;;;;;25.95;17.88;;;0.20;99.90;;;;;;5028634;28;20183;-56
2023/01/30 00:57:55;;;;;;;25.70;16.98;;;0.30;99.90;;;;;;5010531;28;20036;-53
2023/01/30 01:00:41;;;;;;;30.08;17.30;;;0.30;99.90;;;;;;5015479;28;20057;-56
2023/01/30 01:03:27;;;;;;;27.23;17.52;;;0.30;99.90;;;;;;5031865;28;20112;-55
2023/01/30 01:06:13;;;;;;;26.00;16.52;;;0.30;99.90;;;;;;5029758;28;20029;-55
2023/01/30 01:08:59;;;;;;;30.05;17.30;;;0.30;99.90;;;;;;5029465;28;20028;-53
2023/01/30 01:11:44;;;;;;;24.40;15.85;;;0.30;99.90;;;;;;5031368;28;20041;-57
2023/01/30 01:14:31;;;;;;;27.58;16.23;;;0.30;99.90;;;;;;5031101;28;20029;-54
2023/01/30 01:17:17;;;;;;;26.88;16.70;;;0.40;99.90;;;;;;5016589;28;20083;-54
2023/01/30 01:20:04;;;;;;;28.60;17.63;;;0.40;99.90;;;;;;5033690;28;20569;-57
2023/01/30 01:22:55;;;;;;;26.60;17.75;;;0.40;99.90;;;;;;5033652;28;20148;-56
2023/01/30 01:25:41;;;;;;;25.80;17.85;;;0.40;99.90;;;;;;5034430;28;20033;-56
2023/01/30 01:28:27;;;;;;;23.65;16.63;;;0.50;99.90;;;;;;5014491;28;20056;-57
2023/01/30 01:31:15;;;;;;;23.65;15.82;;;0.50;99.90;;;;;;5005107;28;20021;-56
2023/01/30 01:34:00;;;;;;;24.33;15.52;;;0.60;99.90;;;;;;5027382;28;20101;-55
2023/01/30 01:36:48;;;;;;;25.08;15.82;;;0.60;99.90;;;;;;5040402;28;20049;-52
2023/01/30 01:42:39;;;;;;;25.48;15.68;;;0.70;99.90;;;;;;5033600;28;20498;-53
2023/01/30 01:45:25;;;;;;;27.33;17.52;;;0.70;99.90;;;;;;5037240;28;20029;-52
2023/01/30 01:48:27;;;;;;;23.65;16.20;;;0.80;99.90;;;;;;5044832;28;20112;-54
2023/01/30 01:51:28;;;;;;;23.02;14.73;;;0.80;99.90;;;;;;5024794;28;20087;-52
2023/01/30 01:54:19;;;;;;;25.45;15.82;;;0.90;99.90;;;;;;5018201;28;20022;-51
2023/01/30 01:57:12;;;;;;;22.85;15.25;;;1.00;99.90;;;;;;5032564;28;20029;-54
2023/01/30 02:00:03;;;;;;;24.33;16.00;;;1.00;99.90;;;;;;5028372;28;20533;-52
2023/01/30 02:03:03;;;;;;;23.65;15.48;;;1.00;99.90;;;;;;5037999;28;20028;-53
2023/01/30 02:05:54;;;;;;;24.75;16.33;;;1.00;99.90;;;;;;5050828;28;20059;-52
2023/01/30 02:08:46;;;;;;;22.20;14.63;;;1.10;99.90;;;;;;5033118;28;20498;-54
2023/01/30 02:11:38;;;;;;;23.77;15.07;;;1.20;99.90;;;;;;5032909;28;20064;-53
2023/01/30 02:14:24;;;;;;;24.77;15.45;;;1.20;99.90;;;;;;5033762;28;20060;-56
2023/01/30 02:17:10;;;;;;;24.50;15.75;;;1.20;99.90;;;;;;5032629;28;20041;-51
2023/01/30 02:20:11;;;;;;;23.45;15.75;;;1.30;99.90;;;;;;5033723;28;20037;-51
2023/01/30 02:23:20;;;;;;;23.95;15.38;;;1.30;99.90;;;;;;5033130;28;20132;-54
2023/01/30 02:26:25;;;;;;;26.42;16.25;;;1.30;99.90;;;;;;5033983;28;20060;-51
2023/01/30 02:29:49;;;;;;;21.55;13.23;;;1.40;99.90;;;;;;5033766;28;20025;-52
2023/01/30 02:32:44;;;;;;;23.33;14.88;;;1.40;99.90;;;;;;5017493;28;20033;-50
2023/01/30 02:35:40;;;;;;;23.02;16.23;;;1.50;99.90;;;;;;5031798;28;20378;-51
2023/01/30 02:39:03;;;;;;;26.45;16.17;;;1.50;99.90;;;;;;5011967;28;20080;-52
2023/01/30 02:42:13;;;;;;;27.27;16.17;;;1.50;99.90;;;;;;5026832;28;20029;-50
2023/01/30 02:45:23;;;;;;;24.98;16.08;;;1.50;99.90;;;;;;5041817;28;20025;-52
2023/01/30 02:48:26;;;;;;;26.77;17.73;;;1.60;99.90;;;;;;5044395;28;20564;-54
2023/01/30 02:51:18;;;;;;;25.27;16.30;;;1.60;99.90;;;;;;5019604;28;20108;-52
2023/01/30 02:54:10;;;;;;;27.30;17.08;;;1.60;99.90;;;;;;5034102;28;20018;-55
2023/01/30 02:56:57;;;;;;;29.38;17.50;;;1.60;99.90;;;;;;5033564;28;20025;-56
2023/01/30 02:59:47;;;;;;;27.67;17.15;;;1.50;99.90;;;;;;5032377;28;20037;-56
2023/01/30 03:03:08;;;;;;;28.42;18.38;;;1.50;99.90;;;;;;5034152;28;20040;-56
2023/01/30 03:06:32;;;;;;;30.60;18.35;;;1.50;99.90;;;;;;5033162;28;20401;-56
2023/01/30 03:09:23;;;;;;;29.67;18.08;;;1.50;99.90;;;;;;5033050;28;20061;-59
2023/01/30 03:12:30;;;;;;;32.95;18.95;;;1.40;99.90;;;;;;5033333;28;20096;-53
2023/01/30 03:15:21;;;;;;;29.90;18.55;;;1.40;99.90;;;;;;5032901;28;20033;-52
2023/01/30 03:18:08;;;;;;;31.30;19.58;;;1.40;99.90;;;;;;5014553;28;20421;-52
2023/01/30 03:20:54;;;;;;;30.00;18.42;;;1.40;99.90;;;;;;5017401;28;20061;-55
2023/01/30 03:23:40;;;;;;;30.20;19.52;;;1.40;99.90;;;;;;5032416;28;20033;-51
2023/01/30 03:26:31;;;;;;;31.27;18.90;;;1.40;99.90;;;;;;5018009;28;20527;-54
2023/01/30 03:29:17;;;;;;;32.00;19.33;;;1.40;99.90;;;;;;5033841;28;20076;-54
2023/01/30 03:32:03;;;;;;;34.25;20.17;;;1.40;99.90;;;;;;5033165;28;20088;-53
2023/01/30 03:34:49;;;;;;;28.70;18.17;;;1.50;99.90;;;;;;5032150;28;20604;-54
2023/01/30 03:37:35;;;;;;;30.65;18.35;;;1.50;99.90;;;;;;5033025;28;20072;-53
2023/01/30 03:40:21;;;;;;;31.80;19.77;;;1.60;99.90;;;;;;5033263;28;20103;-56
2023/01/30 03:43:07;;;;;;;31.95;18.92;;;1.50;99.90;;;;;;5012898;28;20038;-55
2023/01/30 03:45:53;;;;;;;32.20;19.20;;;1.60;99.90;;;;;;5015814;28;20044;-58
2023/01/30 03:48:39;;;;;;;34.60;20.75;;;1.60;99.90;;;;;;5031454;28;20112;-55
2023/01/30 03:51:25;;;;;;;37.00;21.23;;;1.50;99.90;;;;;;5032013;28;20063;-52
2023/01/30 03:54:11;;;;;;;36.58;21.48;;;1.50;99.90;;;;;;5033601;28;20025;-55
2023/01/30 03:56:57;;;;;;;33.50;20.08;;;1.60;99.90;;;;;;5018827;28;20073;-56
2023/01/30 03:59:43;;;;;;;33.67;20.23;;;1.60;99.90;;;;;;5013744;28;20022;-53
2023/01/30 04:02:29;;;;;;;35.78;21.42;;;1.60;99.90;;;;;;5029574;28;20037;-55
2023/01/30 04:05:15;;;;;;;33.95;20.42;;;1.60;99.90;;;;;;5031786;28;20057;-52
2023/01/30 04:08:01;;;;;;;34.22;20.20;;;1.70;99.90;;;;;;5031390;28;20041;-54
2023/01/30 04:10:47;;;;;;;33.22;20.58;;;1.80;99.90;;;;;;5015633;28;20040;-55
2023/01/30 04:13:33;;;;;;;35.33;20.60;;;1.80;99.90;;;;;;5029923;28;20074;-56
2023/01/30 04:16:22;;;;;;;32.67;19.77;;;1.80;99.90;;;;;;5031008;28;20075;-55
2023/01/30 04:19:08;;;;;;;32.10;19.90;;;1.80;99.90;;;;;;5031461;28;20072;-56
2023/01/30 04:21:54;;;;;;;34.65;20.77;;;1.80;99.90;;;;;;5030774;28;20057;-55
2023/01/30 04:24:40;;;;;;;31.85;18.98;;;1.80;99.90;;;;;;5030886;28;20391;-53
2023/01/30 04:27:26;;;;;;;31.88;20.33;;;1.80;99.90;;;;;;5010578;28;20034;-57
2023/01/30 04:30:12;;;;;;;34.38;19.40;;;1.80;99.90;;;;;;5032136;28;20053;-55
2023/01/30 04:32:58;;;;;;;29.63;19.13;;;1.80;99.90;;;;;;5031473;28;20037;-57
2023/01/30 04:35:52;;;;;;;32.85;19.50;;;1.90;99.90;;;;;;5023834;28;20091;-55
2023/01/30 04:38:38;;;;;;;33.80;20.75;;;1.80;99.90;;;;;;5012127;28;20116;-56
2023/01/30 04:41:24;;;;;;;33.58;19.52;;;1.80;99.90;;;;;;5031131;28;20021;-54
2023/01/30 04:44:10;;;;;;;30.90;19.08;;;1.80;99.90;;;;;;5031390;28;20106;-56
2023/01/30 04:46:56;;;;;;;32.10;19.30;;;1.80;99.90;;;;;;5030972;28;20068;-59
2023/01/30 04:49:42;;;;;;;28.75;18.50;;;1.80;99.90;;;;;;5032553;28;20030;-51
2023/01/30 04:52:28;;;;;;;32.28;18.73;;;1.80;99.90;;;;;;5032150;28;20142;-55
2023/01/30 04:55:14;;;;;;;31.75;19.65;;;1.90;99.90;;;;;;5034198;28;20112;-52
2023/01/30 04:58:00;;;;;;;29.95;18.10;;;1.80;99.90;;;;;;5036905;28;20033;-53
2023/01/30 05:00:46;;;;;;;33.60;19.33;;;1.90;99.90;;;;;;5034554;28;20101;-54
2023/01/30 05:03:32;;;;;;;27.55;16.85;;;1.90;99.90;;;;;;5035271;28;20018;-56
2023/01/30 05:06:19;;;;;;;33.53;19.42;;;2.00;99.90;;;;;;5033472;28;20140;-52
2023/01/30 05:09:06;;;;;;;31.70;19.33;;;2.00;99.90;;;;;;5019468;28;20429;-55
2023/01/30 05:11:52;;;;;;;28.27;17.95;;;2.00;99.90;;;;;;5033474;28;20033;-52
2023/01/30 05:14:40;;;;;;;34.58;19.70;;;2.00;99.90;;;;;;5035080;28;20354;-52
2023/01/30 05:17:26;;;;;;;32.97;19.50;;;2.10;99.90;;;;;;5034089;28;20136;-54
2023/01/30 05:20:13;;;;;;;31.40;19.75;;;2.10;99.90;;;;;;5033864;28;20026;-54
2023/01/30 05:22:59;;;;;;;31.40;17.83;;;2.00;99.90;;;;;;5014484;28;20033;-55
2023/01/30 05:25:45;;;;;;;30.70;18.17;;;2.10;99.90;;;;;;5018000;28;20037;-53
2023/01/30 05:28:31;;;;;;;32.15;19.85;;;2.10;99.90;;;;;;5033327;28;20017;-50
2023/01/30 05:31:17;;;;;;;30.55;20.48;;;2.00;99.90;;;;;;5033399;28;20440;-55
2023/01/30 05:34:03;;;;;;;29.40;19.20;;;2.00;99.90;;;;;;5031402;28;20029;-54
2023/01/30 05:36:49;;;;;;;31.75;19.55;;;2.10;99.90;;;;;;5032601;28;20037;-55
2023/01/30 05:39:35;;;;;;;30.00;18.08;;;2.10;99.90;;;;;;5019845;28;20156;-54
2023/01/30 05:42:21;;;;;;;35.28;19.60;;;2.20;99.90;;;;;;5033109;28;20033;-50
2023/01/30 05:45:07;;;;;;;30.95;19.70;;;2.10;99.90;;;;;;5032381;28;20068;-54
2023/01/30 05:47:53;;;;;;;32.17;19.85;;;2.10;99.90;;;;;;5032556;28;20041;-56
2023/01/30 05:50:39;;;;;;;29.63;18.70;;;2.10;99.90;;;;;;5033278;28;20025;-55
2023/01/30 05:53:30;;;;;;;28.92;18.33;;;2.10;99.90;;;;;;5033330;28;20030;-50
2023/01/30 05:56:17;;;;;;;28.58;17.90;;;2.10;99.90;;;;;;5032875;28;20029;-46
2023/01/30 05:59:03;;;;;;;30.63;19.67;;;2.10;99.90;;;;;;5033672;28;20071;-53
2023/01/30 06:01:49;;;;;;;28.60;17.80;;;2.10;99.90;;;;;;5004082;28;20088;-52
2023/01/30 06:04:35;;;;;;;29.42;18.67;;;2.10;99.90;;;;;;5014686;28;20515;-55
2023/01/30 06:07:21;;;;;;;25.95;16.15;;;2.20;99.90;;;;;;5037501;28;20104;-46
2023/01/30 06:10:08;;;;;;;26.80;17.35;;;2.20;99.90;;;;;;5040495;28;20053;-53
2023/01/30 06:12:54;;;;;;;27.33;17.58;;;2.30;99.90;;;;;;5022436;28;20069;-52
2023/01/30 06:15:39;;;;;;;26.65;19.52;;;2.20;99.90;;;;;;5023419;28;20033;-47
2023/01/30 06:18:25;;;;;;;28.50;17.92;;;2.20;99.90;;;;;;5036635;28;20037;-50
2023/01/30 06:21:13;;;;;;;29.80;18.40;;;2.30;99.90;;;;;;5035592;28;20112;-50
2023/01/30 06:23:59;;;;;;;28.52;17.90;;;2.20;99.90;;;;;;5034651;28;20034;-51
2023/01/30 06:26:45;;;;;;;30.33;17.25;;;2.20;99.90;;;;;;5033148;28;20026;-47
2023/01/30 06:29:31;;;;;;;27.70;16.65;;;2.30;99.90;;;;;;5032316;28;20065;-50
2023/01/30 06:32:17;;;;;;;27.98;17.75;;;2.30;99.90;;;;;;5032186;28;20100;-48
2023/01/30 06:35:03;;;;;;;26.13;17.70;;;2.30;99.90;;;;;;5031723;28;20037;-54
2023/01/30 06:37:52;;;;;;;25.88;16.30;;;2.40;99.90;;;;;;5013675;28;20037;-50
2023/01/30 06:40:39;;;;;;;24.95;16.90;;;2.40;99.90;;;;;;5016242;28;20029;-45
2023/01/30 06:43:25;;;;;;;21.45;14.82;;;2.40;99.90;;;;;;5032571;28;20125;-51
2023/01/30 06:46:11;;;;;;;24.60;16.75;;;2.50;99.90;;;;;;5032149;28;20037;-53
2023/01/30 06:48:57;;;;;;;22.33;15.65;;;2.50;99.90;;;;;;5032550;28;20193;-56
2023/01/30 06:51:43;;;;;;;27.55;16.38;;;2.50;99.90;;;;;;5031628;28;20117;-53
2023/01/30 06:54:29;;;;;;;25.77;16.27;;;2.50;99.90;;;;;;5032656;28;20738;-55
2023/01/30 06:57:15;;;;;;;22.45;14.05;;;2.60;99.90;;;;;;5032115;28;20036;-52
2023/01/30 07:00:03;;;;;;;23.63;15.43;;;2.60;99.90;;;;;;5032175;28;20033;-52
2023/01/30 07:02:49;;;;;;;22.48;14.48;;;2.60;99.90;;;;;;5031635;28;20024;-54
2023/01/30 07:05:37;;;;;;;22.60;16.27;;;2.60;99.90;;;;;;5029588;28;20953;-51
2023/01/30 07:08:23;;;;;;;24.20;15.73;;;2.50;99.90;;;;;;5039541;28;20422;-51
2023/01/30 07:11:09;;;;;;;20.85;13.70;;;2.60;99.90;;;;;;5016244;28;20034;-47
2023/01/30 07:13:56;;;;;;;24.08;14.77;;;2.50;99.90;;;;;;5031933;28;20030;-54
2023/01/30 07:16:42;;;;;;;21.17;13.95;;;2.50;99.90;;;;;;5030508;28;20124;-49
2023/01/30 07:19:28;;;;;;;22.77;13.95;;;2.50;99.90;;;;;;5031904;28;20055;-52
2023/01/30 07:22:14;;;;;;;19.48;13.23;;;2.60;99.90;;;;;;5030697;28;20025;-46
2023/01/30 07:25:00;;;;;;;21.30;13.85;;;2.60;99.90;;;;;;5031308;28;20568;-49
2023/01/30 07:27:53;;;;;;;18.65;12.95;;;2.60;99.90;;;;;;5022849;28;20021;-54
2023/01/30 07:30:39;;;;;;;20.52;14.15;;;2.60;99.90;;;;;;5013393;28;20060;-48
2023/01/30 07:33:25;;;;;;;19.42;13.38;;;2.60;99.90;;;;;;5022647;28;20022;-46
2023/01/30 07:36:11;;;;;;;19.15;12.38;;;2.60;99.90;;;;;;5050223;28;20029;-49
2023/01/30 07:38:58;;;;;;;20.92;13.18;;;2.60;99.90;;;;;;5030423;28;20053;-50
2023/01/30 07:41:44;;;;;;;21.02;13.55;;;2.50;99.90;;;;;;5034543;28;20037;-51
2023/01/30 07:44:30;;;;;;;19.58;12.85;;;2.60;99.90;;;;;;5031839;28;20033;-50
2023/01/30 07:47:18;;;;;;;16.67;11.98;;;2.60;99.90;;;;;;5030643;28;20517;-49
2023/01/30 07:50:05;;;;;;;18.83;12.25;;;2.60;99.90;;;;;;5030494;28;20061;-53
2023/01/30 07:52:51;;;;;;;17.70;12.45;;;2.60;99.90;;;;;;5010763;28;20670;-46
2023/01/30 07:55:37;;;;;;;17.92;12.60;;;2.60;99.90;;;;;;5017432;28;20508;-53
2023/01/30 07:58:23;;;;;;;15.65;12.45;;;2.60;99.90;;;;;;5029345;28;20076;-49
2023/01/30 08:01:09;;;;;;;19.70;13.00;;;2.60;99.90;;;;;;5029215;28;20038;-52
2023/01/30 08:03:55;;;;;;;18.35;12.32;;;2.60;99.90;;;;;;5013129;28;20030;-53
2023/01/30 08:06:41;;;;;;;17.02;12.40;;;2.70;99.90;;;;;;5019726;28;20025;-52
2023/01/30 08:09:27;;;;;;;17.83;11.77;;;2.60;99.90;;;;;;5022819;28;20061;-52
2023/01/30 08:12:13;;;;;;;16.48;11.85;;;2.60;99.90;;;;;;5021815;28;20069;-48
2023/01/30 08:14:59;;;;;;;14.73;10.82;;;2.70;99.90;;;;;;5020139;28;20041;-52
2023/01/30 08:17:54;;;;;;;16.52;11.52;;;2.80;99.90;;;;;;5019091;28;20031;-49
2023/01/30 08:20:41;;;;;;;15.07;10.32;;;2.80;99.90;;;;;;5018368;28;20383;-48
2023/01/30 08:23:27;;;;;;;15.38;10.85;;;2.70;99.90;;;;;;5020865;28;20791;-53
2023/01/30 08:26:13;;;;;;;14.43;10.85;;;2.80;99.90;;;;;;5014802;28;20053;-54
2023/01/30 08:28:59;;;;;;;14.23;10.75;;;2.80;99.90;;;;;;5005530;28;20490;-53
2023/01/30 08:31:45;;;;;;;14.43;10.23;;;2.80;99.90;;;;;;5021763;28;20026;-51
2023/01/30 08:34:31;;;;;;;13.50;9.73;;;2.80;99.90;;;;;;5023733;28;20037;-51
2023/01/30 08:37:17;;;;;;;14.63;9.80;;;2.80;99.90;;;;;;5018274;28;20061;-54
2023/01/30 08:40:04;;;;;;;12.07;9.40;;;2.90;99.90;;;;;;5020387;28;20029;-56
2023/01/30 08:42:50;;;;;;;11.80;8.65;;;2.80;99.90;;;;;;5031365;28;20025;-56
2023/01/30 08:45:35;;;;;;;12.25;9.50;;;2.80;99.90;;;;;;5029146;28;20076;-57
2023/01/30 08:48:22;;;;;;;14.70;9.75;;;2.80;99.90;;;;;;5026341;28;20025;-54
2023/01/30 08:51:08;;;;;;;14.05;10.52;;;2.90;99.90;;;;;;5029102;28;20112;-55
2023/01/30 08:53:54;;;;;;;14.90;9.43;;;3.00;99.90;;;;;;5029376;28;20033;-53
2023/01/30 08:56:40;;;;;;;11.93;9.13;;;3.00;99.90;;;;;;5023379;28;20037;-53
2023/01/30 08:59:26;;;;;;;11.48;9.02;;;3.00;99.90;;;;;;5021054;28;20068;-53
2023/01/30 09:02:12;;;;;;;12.02;8.48;;;3.00;99.90;;;;;;5019634;28;20026;-56
2023/01/30 09:04:58;;;;;;;13.50;8.73;;;3.10;99.90;;;;;;5021533;28;20041;-53
2023/01/30 09:07:44;;;;;;;11.95;8.88;;;3.20;99.90;;;;;;5021071;28;20105;-55
2023/01/30 09:10:30;;;;;;;11.90;9.00;;;3.20;99.90;;;;;;5019680;28;20270;-51
2023/01/30 09:13:16;;;;;;;12.68;9.15;;;3.30;99.90;;;;;;5024558;28;20037;-52
2023/01/30 09:16:05;;;;;;;12.23;9.75;;;3.30;99.90;;;;;;5021240;28;20517;-52
2023/01/30 09:18:51;;;;;;;11.13;8.55;;;3.30;99.90;;;;;;5020436;28;20084;-52
2023/01/30 09:21:37;;;;;;;11.88;8.10;;;3.40;99.90;;;;;;5021867;28;20403;-55
2023/01/30 09:24:26;;;;;;;11.57;8.77;;;3.40;99.90;;;;;;5012694;28;20026;-54
2023/01/30 09:27:12;;;;;;;13.60;9.93;;;3.40;99.90;;;;;;5029181;28;20568;-56
2023/01/30 09:29:58;;;;;;;12.88;9.02;;;3.50;99.90;;;;;;5028359;28;20038;-54
2023/01/30 09:32:44;;;;;;;12.70;8.68;;;3.50;99.90;;;;;;5030149;28;20104;-57
2023/01/30 09:35:30;;;;;;;13.05;7.95;;;3.50;99.90;;;;;;5014917;28;20128;-56
2023/01/30 09:38:17;;;;;;;10.57;7.78;;;3.60;99.90;;;;;;5023134;28;20026;-55
2023/01/30 09:41:23;;;;;;;11.27;7.65;;;3.60;99.90;;;;;;5032280;28;20034;-52
2023/01/30 09:44:42;;;;;;;8.50;6.65;;;3.60;99.90;;;;;;5032541;28;20026;-54
2023/01/30 09:47:46;;;;;;;11.35;6.70;;;3.70;99.90;;;;;;5032770;28;20022;-56
2023/01/30 09:51:16;;;;;;;7.50;6.20;;;3.70;99.90;;;;;;5032942;28;20083;-57
2023/01/30 09:54:16;;;;;;;11.77;7.22;;;3.70;99.90;;;;;;4997418;28;20034;-46
2023/01/30 09:57:08;;;;;;;9.93;7.60;;;3.60;99.90;;;;;;5033314;28;20057;-54
2023/01/30 10:00:23;;;;;;;8.35;6.50;;;3.70;99.90;;;;;;5033509;28;20375;-53
2023/01/30 10:03:12;;;;;;;8.77;6.88;;;3.60;99.90;;;;;;5022482;28;20573;-48
2023/01/30 10:06:04;;;;;;;9.80;6.68;;;3.50;99.90;;;;;;5025620;28;20033;-56
2023/01/30 10:09:00;;;;;;;8.20;6.45;;;3.50;99.90;;;;;;5033588;28;20021;-52
2023/01/30 10:12:05;;;;;;;9.32;6.60;;;3.50;99.90;;;;;;5017198;28;20022;-49
2023/01/30 10:14:56;;;;;;;10.68;7.32;;;3.50;99.90;;;;;;5032106;28;20508;-55
2023/01/30 10:17:42;;;;;;;7.85;6.22;;;3.60;99.90;;;;;;5010866;28;20030;-46
2023/01/30 10:20:50;;;;;;;9.15;6.20;;;3.60;99.90;;;;;;5013602;28;20383;-47
2023/01/30 10:23:46;;;;;;;7.60;5.80;;;3.70;99.90;;;;;;5033461;28;20461;-48
2023/01/30 10:26:32;;;;;;;;;;;3.90;99.90;;;;;;5032873;28;20029;-47
2023/01/30 10:29:18;;;;;;;;;;;3.90;99.90;;;;;;5032706;28;19933;-50
2023/01/30 10:32:13;;;;;;;10.43;6.45;;;3.90;99.90;;;;;;5034601;28;19909;-49
2023/01/30 10:35:06;;;;;;;8.60;5.65;;;3.80;99.90;;;;;;5032496;28;20038;-48
2023/01/30 10:38:01;;;;;;;9.05;5.50;;;3.80;99.90;;;;;;5031663;28;20091;-47
2023/01/30 10:40:50;;;;;;;9.02;5.60;;;3.80;99.90;;;;;;5032098;28;20029;-51
2023/01/30 10:44:07;;;;;;;6.32;4.90;;;3.80;99.90;;;;;;5028994;28;20060;-51
2023/01/30 10:47:05;;;;;;;8.00;4.78;;;4.00;99.90;;;;;;5030382;28;20178;-50
2023/01/30 10:49:55;;;;;;;7.88;5.57;;;4.00;99.90;;;;;;5032815;28;20105;-51
2023/01/30 10:53:10;;;;;;;8.10;5.65;;;4.10;99.90;;;;;;5032412;28;20046;-50
2023/01/30 10:56:12;;;;;;;8.70;5.87;;;4.20;99.90;;;;;;5031026;28;20095;-55
2023/01/30 10:59:22;;;;;;;7.30;5.60;;;4.30;99.90;;;;;;5031797;28;20040;-57
2023/01/30 11:02:36;;;;;;;7.90;5.28;;;4.40;99.90;;;;;;5031984;28;20025;-57
2023/01/30 11:05:26;;;;;;;7.90;6.05;;;4.30;99.90;;;;;;5022617;28;20095;-54
2023/01/30 11:08:28;;;;;;;8.65;5.78;;;4.30;99.90;;;;;;5004203;28;20524;-57
2023/01/30 11:11:26;;;;;;;6.80;5.47;;;4.40;99.90;;;;;;5031579;28;20017;-51
2023/01/30 11:14:12;;;;;;;7.25;5.05;;;4.60;99.90;;;;;;5032160;28;20044;-56
2023/01/30 11:16:59;;;;;;;7.38;4.57;;;4.70;99.90;;;;;;5029640;28;20052;-55
2023/01/30 11:19:53;;;;;;;6.85;4.63;;;4.90;99.90;;;;;;5031465;28;20112;-52
2023/01/30 11:22:46;;;;;;;7.82;4.70;;;5.00;99.90;;;;;;5031698;28;20040;-57
2023/01/30 11:26:03;;;;;;;15.70;7.53;;;4.90;99.90;;;;;;5029239;28;20025;-56
2023/01/30 11:28:49;;;;;;;9.27;4.70;;;5.00;99.90;;;;;;5029769;28;20099;-56
2023/01/30 11:31:39;;;;;;;6.03;5.05;;;4.90;99.90;;;;;;5030581;28;20105;-57
2023/01/30 11:34:25;;;;;;;6.72;4.40;;;5.00;99.90;;;;;;5023990;28;20025;-58
2023/01/30 11:37:29;;;;;;;5.20;3.72;;;5.00;99.90;;;;;;5030627;28;20135;-53
2023/01/30 11:40:19;;;;;;;8.40;4.30;;;5.10;99.90;;;;;;5030063;28;20068;-58
2023/01/30 11:43:11;;;;;;;7.60;4.35;;;5.30;99.90;;;;;;5030287;28;20025;-55
2023/01/30 11:45:58;;;;;;;6.50;4.25;;;5.20;99.90;;;;;;5029780;28;20058;-55
2023/01/30 11:49:00;;;;;;;5.30;3.80;;;5.30;99.90;;;;;;5016138;28;20026;-56
2023/01/30 11:51:47;;;;;;;9.80;4.70;;;5.30;99.90;;;;;;5029697;28;20029;-55
2023/01/30 11:54:44;;;;;;;5.18;3.90;;;5.20;99.90;;;;;;5030509;28;20510;-55
2023/01/30 11:57:42;;;;;;;5.43;3.58;;;5.10;99.90;;;;;;5030166;28;20049;-55
2023/01/30 12:00:41;;;;;;;8.15;3.83;;;5.20;99.90;;;;;;5031323;28;20109;-55
2023/01/30 12:03:28;;;;;;;7.35;3.97;;;5.20;99.90;;;;;;5029559;28;20038;-57
2023/01/30 12:06:35;;;;;;;7.30;3.80;;;5.60;99.90;;;;;;5030776;28;20044;-55
2023/01/30 12:09:35;;;;;;;9.50;3.90;;;5.80;99.90;;;;;;5030039;28;20494;-57
2023/01/30 12:12:42;;;;;;;7.55;4.30;;;6.10;99.90;;;;;;5011446;28;20045;-54
2023/01/30 12:15:33;;;;;;;6.07;3.53;;;6.30;99.90;;;;;;5006324;28;20577;-56
2023/01/30 12:18:27;;;;;;;5.97;3.10;;;6.30;99.90;;;;;;5035521;28;20045;-53
2023/01/30 12:21:44;;;;;;;6.80;3.58;;;6.40;99.90;;;;;;5035303;28;20029;-53
2023/01/30 12:24:39;;;;;;;7.80;3.60;;;6.00;99.90;;;;;;5031898;28;20026;-56
2023/01/30 12:27:51;;;;;;;6.75;3.38;;;6.00;99.90;;;;;;5014284;28;20030;-56
2023/01/30 12:30:50;;;;;;;13.13;4.68;;;5.90;99.90;;;;;;5020905;28;20029;-53
2023/01/30 12:33:36;;;;;;;7.05;3.42;;;6.00;99.90;;;;;;5033662;28;20018;-54
2023/01/30 12:36:34;;;;;;;6.68;3.40;;;5.90;99.90;;;;;;5036105;28;20067;-53
2023/01/30 12:39:40;;;;;;;7.78;3.22;;;6.00;99.90;;;;;;5015076;28;20255;-52
2023/01/30 12:42:46;;;;;;;7.50;3.47;;;6.00;99.90;;;;;;5033845;28;20036;-57
2023/01/30 12:45:48;;;;;;;8.30;3.55;;;6.00;99.90;;;;;;4988607;28;20299;-50
2023/01/30 12:48:55;;;;;;;9.00;3.08;;;6.10;99.90;;;;;;5010240;28;20169;-55
2023/01/30 12:51:52;;;;;;;12.68;3.70;;;6.50;99.90;;;;;;5012414;28;20064;-56
2023/01/30 12:55:07;;;;;;;6.85;4.13;;;6.50;99.90;;;;;;5019643;28;20017;-50
2023/01/30 12:58:02;;;;;;;7.50;2.80;;;6.60;99.90;;;;;;5031776;28;20025;-53
2023/01/30 13:01:13;;;;;;;5.87;2.50;;;6.40;99.90;;;;;;5031994;28;20079;-51
2023/01/30 13:04:23;;;;;;;6.30;2.88;;;6.20;99.90;;;;;;5031822;28;20052;-57
2023/01/30 13:07:24;;;;;;;7.78;2.60;;;6.10;99.90;;;;;;5029895;28;20030;-52
2023/01/30 13:10:53;;;;;;;4.72;2.47;;;6.20;99.90;;;;;;5030264;28;20501;-52
2023/01/30 13:13:45;;;;;;;8.10;2.65;;;6.20;99.90;;;;;;5030902;28;20042;-51
2023/01/30 13:17:04;;;;;;;6.70;2.38;;;6.20;99.90;;;;;;5033287;28;20018;-55
2023/01/30 13:20:12;;;;;;;9.57;3.08;;;6.10;99.90;;;;;;5034646;28;20033;-51
2023/01/30 13:23:11;;;;;;;5.53;2.45;;;6.00;99.90;;;;;;5015065;28;20025;-55
2023/01/30 13:26:14;;;;;;;9.00;2.53;;;5.90;99.90;;;;;;5027603;28;20030;-52
2023/01/30 13:29:10;;;;;;;6.55;3.30;;;5.80;99.90;;;;;;5033956;28;20026;-52
2023/01/30 13:32:00;;;;;;;7.18;2.22;;;5.60;99.90;;;;;;5034729;28;20105;-53
2023/01/30 13:34:48;;;;;;;6.63;2.88;;;5.60;99.90;;;;;;5033234;28;20083;-50
2023/01/30 13:37:36;;;;;;;6.45;2.53;;;5.70;99.90;;;;;;5051982;28;20438;-58
2023/01/30 13:40:26;;;;;;;4.95;2.40;;;5.80;99.90;;;;;;5040732;28;20036;-50
2023/01/30 13:43:24;;;;;;;10.40;3.60;;;5.90;99.90;;;;;;5034370;28;20095;-53
2023/01/30 13:46:17;;;;;;;7.30;2.97;;;6.00;99.90;;;;;;5033474;28;20057;-53
2023/01/30 13:49:12;;;;;;;8.35;2.97;;;6.20;99.90;;;;;;5032798;28;20673;-52
2023/01/30 13:52:13;;;;;;;5.43;2.45;;;6.20;99.90;;;;;;5014112;28;20427;-54
2023/01/30 13:55:22;;;;;;;9.13;4.30;;;6.30;99.90;;;;;;5020242;28;20532;-54
2023/01/30 13:58:35;;;;;;;10.45;3.15;;;6.20;99.90;;;;;;5033703;28;20036;-52
2023/01/30 14:01:21;;;;;;;8.85;3.15;;;6.30;99.90;;;;;;5033725;28;20032;-52
2023/01/30 14:04:38;;;;;;;8.30;3.15;;;6.20;99.90;;;;;;5019187;28;20034;-54
2023/01/30 14:07:39;;;;;;;8.88;3.22;;;6.10;99.90;;;;;;5033154;28;20021;-56
2023/01/30 14:10:26;;;;;;;15.02;3.63;;;6.10;99.90;;;;;;5026801;28;20558;-54
2023/01/30 14:13:14;;;;;;;11.05;3.72;;;6.00;99.90;;;;;;5031751;28;20052;-55
2023/01/30 14:16:03;;;;;;;9.85;3.10;;;5.90;99.90;;;;;;5029898;28;20053;-52
2023/01/30 14:18:49;;;;;;;14.07;2.90;;;5.90;99.90;;;;;;5011017;28;20410;-53
2023/01/30 14:21:35;;;;;;;12.80;3.55;;;5.80;99.90;;;;;;5012623;28;20061;-54
2023/01/30 14:24:23;;;;;;;8.13;3.22;;;5.70;99.90;;;;;;5030430;28;20037;-53
2023/01/30 14:27:30;;;;;;;11.63;3.40;;;5.80;99.90;;;;;;5023392;28;20052;-52
2023/01/30 14:30:33;;;;;;;12.02;3.30;;;5.70;99.90;;;;;;5014269;28;20452;-52
2023/01/30 14:33:19;;;;;;;13.13;3.03;;;5.70;99.90;;;;;;5018316;28;20022;-50
2023/01/30 14:36:06;;;;;;;9.38;2.78;;;5.60;99.90;;;;;;5033458;28;20033;-54
2023/01/30 14:39:36;;;;;;;8.73;3.10;;;5.70;99.90;;;;;;5032440;28;20057;-51
2023/01/30 14:42:24;;;;;;;6.53;2.67;;;5.70;99.90;;;;;;5033501;28;20033;-54
2023/01/30 14:45:15;;;;;;;6.10;3.30;;;5.70;99.90;;;;;;5032857;28;20037;-52
2023/01/30 14:48:23;;;;;;;9.98;2.97;;;5.40;99.90;;;;;;5013306;28;20505;-55
2023/01/30 14:51:35;;;;;;;11.52;2.95;;;5.40;99.90;;;;;;5023676;28;20061;-53
2023/01/30 14:54:30;;;;;;;9.73;2.58;;;5.40;99.90;;;;;;5021903;28;20053;-56
2023/01/30 14:57:21;;;;;;;6.40;2.78;;;5.40;99.90;;;;;;5033327;28;20509;-57
2023/01/30 15:00:18;;;;;;;4.28;2.38;;;5.30;99.90;;;;;;5020593;28;20045;-53
2023/01/30 15:03:14;;;;;;;5.35;2.60;;;5.30;99.90;;;;;;5034740;28;20044;-56